sensor_id;sensor_type;location;lat;lon;timestamp;P1;durP1;ratioP1;P2;durP2;ratioP2
8232;SDS011;4157;48.074;9.952;2023-04-06T00:01:10;12.98;;;9.48;;
8232;SDS011;4157;48.074;9.952;2023-04-06T00:03:38;9.05;;;8.15;;
8232;SDS011;4157;48.074;9.952;2023-04-06T00:06:06;12.68;;;9.52;;
8232;SDS011;4157;48.074;9.952;2023-04-06T00:08:34;11.93;;;9.07;;
8232;SDS011;4157;48.074;9.952;2023-04-06T00:11:01;11.90;;;9.05;;
8232;SDS011;4157;48.074;9.952;2023-04-06T00:13:30;11.32;;;9.60;;
8232;SDS011;4157;48.074;9.952;2023-04-06T00:15:58;11.27;;;8.90;;
8232;SDS011;4157;48.074;9.952;2023-04-06T00:18:26;12.32;;;9.25;;
8232;SDS011;4157;48.074;9.952;2023-04-06T00:20:53;9.27;;;6.50;;
8232;SDS011;4157;48.074;9.952;2023-04-06T00:23:22;13.13;;;9.13;;
8232;SDS011;4157;48.074;9.952;2023-04-06T00:25:49;10.05;;;8.13;;
8232;SDS011;4157;48.074;9.952;2023-04-06T00:28:17;11.25;;;8.52;;
8232;SDS011;4157;48.074;9.952;2023-04-06T00:30:52;11.77;;;9.35;;
8232;SDS011;4157;48.074;9.952;2023-04-06T00:33:21;10.93;;;8.82;;
8232;SDS011;4157;48.074;9.952;2023-04-06T00:35:49;11.48;;;9.20;;
8232;SDS011;4157;48.074;9.952;2023-04-06T00:38:17;11.00;;;9.55;;
8232;SDS011;4157;48.074;9.952;2023-04-06T00:40:45;12.82;;;9.55;;
8232;SDS011;4157;48.074;9.952;2023-04-06T00:43:12;10.57;;;6.85;;
8232;SDS011;4157;48.074;9.952;2023-04-06T00:45:41;13.00;;;9.32;;
8232;SDS011;4157;48.074;9.952;2023-04-06T00:48:10;11.30;;;9.43;;
8232;SDS011;4157;48.074;9.952;2023-04-06T00:50:38;13.27;;;9.63;;
8232;SDS011;4157;48.074;9.952;2023-04-06T00:53:06;11.63;;;7.82;;
8232;SDS011;4157;48.074;9.952;2023-04-06T00:55:34;12.13;;;9.35;;
8232;SDS011;4157;48.074;9.952;2023-04-06T00:58:02;13.05;;;10.68;;
8232;SDS011;4157;48.074;9.952;2023-04-06T01:00:38;12.07;;;10.15;;
8232;SDS011;4157;48.074;9.952;2023-04-06T01:03:07;12.73;;;10.70;;
8232;SDS011;4157;48.074;9.952;2023-04-06T01:05:42;14.93;;;7.90;;
8232;SDS011;4157;48.074;9.952;2023-04-06T01:08:18;11.57;;;8.90;;
8232;SDS011;4157;48.074;9.952;2023-04-06T01:10:47;12.20;;;9.68;;
8232;SDS011;4157;48.074;9.952;2023-04-06T01:13:24;14.32;;;7.82;;
8232;SDS011;4157;48.074;9.952;2023-04-06T01:15:55;12.45;;;9.80;;
8232;SDS011;4157;48.074;9.952;2023-04-06T01:18:43;12.90;;;7.45;;
8232;SDS011;4157;48.074;9.952;2023-04-06T01:21:19;10.57;;;8.90;;
8232;SDS011;4157;48.074;9.952;2023-04-06T01:24:07;12.10;;;9.85;;
8232;SDS011;4157;48.074;9.952;2023-04-06T01:26:51;13.18;;;11.35;;
8232;SDS011;4157;48.074;9.952;2023-04-06T01:29:18;14.70;;;11.60;;
8232;SDS011;4157;48.074;9.952;2023-04-06T01:31:46;16.08;;;12.65;;
8232;SDS011;4157;48.074;9.952;2023-04-06T01:34:14;15.55;;;9.23;;
8232;SDS011;4157;48.074;9.952;2023-04-06T01:36:42;16.92;;;13.68;;
8232;SDS011;4157;48.074;9.952;2023-04-06T01:39:26;17.15;;;14.02;;
8232;SDS011;4157;48.074;9.952;2023-04-06T01:41:53;17.40;;;13.30;;
8232;SDS011;4157;48.074;9.952;2023-04-06T01:44:22;20.45;;;9.65;;
8232;SDS011;4157;48.074;9.952;2023-04-06T01:47:00;19.23;;;10.98;;
8232;SDS011;4157;48.074;9.952;2023-04-06T01:49:28;18.35;;;13.07;;
8232;SDS011;4157;48.074;9.952;2023-04-06T01:51:56;16.33;;;13.48;;
8232;SDS011;4157;48.074;9.952;2023-04-06T01:54:26;16.25;;;9.13;;
8232;SDS011;4157;48.074;9.952;2023-04-06T01:57:07;17.27;;;10.18;;
8232;SDS011;4157;48.074;9.952;2023-04-06T01:59:58;15.90;;;12.45;;
8232;SDS011;4157;48.074;9.952;2023-04-06T02:02:39;16.48;;;9.60;;
8232;SDS011;4157;48.074;9.952;2023-04-06T02:05:13;13.68;;;11.32;;
8232;SDS011;4157;48.074;9.952;2023-04-06T02:07:41;14.00;;;9.57;;
8232;SDS011;4157;48.074;9.952;2023-04-06T02:10:14;16.15;;;11.32;;
8232;SDS011;4157;48.074;9.952;2023-04-06T02:12:43;16.52;;;12.25;;
8232;SDS011;4157;48.074;9.952;2023-04-06T02:15:17;15.02;;;8.82;;
8232;SDS011;4157;48.074;9.952;2023-04-06T02:17:45;12.55;;;8.60;;
8232;SDS011;4157;48.074;9.952;2023-04-06T02:20:12;14.45;;;8.15;;
8232;SDS011;4157;48.074;9.952;2023-04-06T02:22:40;13.82;;;11.57;;
8232;SDS011;4157;48.074;9.952;2023-04-06T02:25:08;14.05;;;11.90;;
8232;SDS011;4157;48.074;9.952;2023-04-06T02:27:37;16.00;;;9.50;;
8232;SDS011;4157;48.074;9.952;2023-04-06T02:30:05;15.32;;;8.80;;
8232;SDS011;4157;48.074;9.952;2023-04-06T02:32:33;14.68;;;12.70;;
8232;SDS011;4157;48.074;9.952;2023-04-06T02:35:01;14.98;;;12.25;;
8232;SDS011;4157;48.074;9.952;2023-04-06T02:37:30;15.50;;;9.80;;
8232;SDS011;4157;48.074;9.952;2023-04-06T02:39:58;14.60;;;12.95;;
8232;SDS011;4157;48.074;9.952;2023-04-06T02:42:28;17.85;;;13.38;;
8232;SDS011;4157;48.074;9.952;2023-04-06T02:44:57;13.48;;;11.60;;
8232;SDS011;4157;48.074;9.952;2023-04-06T02:47:29;13.68;;;8.57;;
8232;SDS011;4157;48.074;9.952;2023-04-06T02:49:57;13.80;;;11.85;;
8232;SDS011;4157;48.074;9.952;2023-04-06T02:52:25;17.55;;;9.73;;
8232;SDS011;4157;48.074;9.952;2023-04-06T02:54:53;16.40;;;8.63;;
8232;SDS011;4157;48.074;9.952;2023-04-06T02:57:26;14.85;;;7.90;;
8232;SDS011;4157;48.074;9.952;2023-04-06T02:59:54;13.45;;;10.85;;
8232;SDS011;4157;48.074;9.952;2023-04-06T03:02:31;14.98;;;8.95;;
8232;SDS011;4157;48.074;9.952;2023-04-06T03:05:06;12.43;;;8.35;;
8232;SDS011;4157;48.074;9.952;2023-04-06T03:07:37;14.02;;;10.30;;
8232;SDS011;4157;48.074;9.952;2023-04-06T03:10:09;13.40;;;10.50;;
8232;SDS011;4157;48.074;9.952;2023-04-06T03:12:37;14.50;;;7.68;;
8232;SDS011;4157;48.074;9.952;2023-04-06T03:15:16;14.25;;;8.20;;
8232;SDS011;4157;48.074;9.952;2023-04-06T03:17:51;13.45;;;10.82;;
8232;SDS011;4157;48.074;9.952;2023-04-06T03:20:31;14.35;;;8.27;;
8232;SDS011;4157;48.074;9.952;2023-04-06T03:22:59;13.30;;;8.23;;
8232;SDS011;4157;48.074;9.952;2023-04-06T03:25:30;14.93;;;9.10;;
8232;SDS011;4157;48.074;9.952;2023-04-06T03:28:02;14.32;;;11.68;;
8232;SDS011;4157;48.074;9.952;2023-04-06T03:30:32;14.90;;;11.15;;
8232;SDS011;4157;48.074;9.952;2023-04-06T03:33:01;13.30;;;9.07;;
8232;SDS011;4157;48.074;9.952;2023-04-06T03:35:32;11.48;;;7.60;;
8232;SDS011;4157;48.074;9.952;2023-04-06T03:38:02;15.05;;;11.77;;
8232;SDS011;4157;48.074;9.952;2023-04-06T03:40:30;14.23;;;8.73;;
8232;SDS011;4157;48.074;9.952;2023-04-06T03:42:57;16.33;;;9.15;;
8232;SDS011;4157;48.074;9.952;2023-04-06T03:45:25;13.80;;;11.43;;
8232;SDS011;4157;48.074;9.952;2023-04-06T03:47:53;15.48;;;9.05;;
8232;SDS011;4157;48.074;9.952;2023-04-06T03:50:23;13.88;;;8.48;;
8232;SDS011;4157;48.074;9.952;2023-04-06T03:52:50;14.88;;;9.13;;
8232;SDS011;4157;48.074;9.952;2023-04-06T03:55:18;15.32;;;9.27;;
8232;SDS011;4157;48.074;9.952;2023-04-06T03:57:46;13.85;;;11.27;;
8232;SDS011;4157;48.074;9.952;2023-04-06T04:00:14;16.58;;;8.80;;
8232;SDS011;4157;48.074;9.952;2023-04-06T04:02:41;12.10;;;10.68;;
8232;SDS011;4157;48.074;9.952;2023-04-06T04:05:09;15.10;;;9.10;;
8232;SDS011;4157;48.074;9.952;2023-04-06T04:07:38;11.98;;;10.68;;
8232;SDS011;4157;48.074;9.952;2023-04-06T04:10:07;15.82;;;8.65;;
8232;SDS011;4157;48.074;9.952;2023-04-06T04:12:35;15.80;;;8.77;;
8232;SDS011;4157;48.074;9.952;2023-04-06T04:15:03;16.40;;;12.18;;
8232;SDS011;4157;48.074;9.952;2023-04-06T04:17:31;12.45;;;8.48;;
8232;SDS011;4157;48.074;9.952;2023-04-06T04:19:59;13.88;;;8.48;;
8232;SDS011;4157;48.074;9.952;2023-04-06T04:22:26;14.18;;;11.95;;
8232;SDS011;4157;48.074;9.952;2023-04-06T04:24:56;15.05;;;8.73;;
8232;SDS011;4157;48.074;9.952;2023-04-06T04:27:24;14.82;;;8.18;;
8232;SDS011;4157;48.074;9.952;2023-04-06T04:29:52;15.05;;;9.18;;
8232;SDS011;4157;48.074;9.952;2023-04-06T04:32:20;14.27;;;12.60;;
8232;SDS011;4157;48.074;9.952;2023-04-06T04:34:48;16.30;;;10.18;;
8232;SDS011;4157;48.074;9.952;2023-04-06T04:37:29;15.52;;;9.68;;
8232;SDS011;4157;48.074;9.952;2023-04-06T04:39:58;16.30;;;10.38;;
8232;SDS011;4157;48.074;9.952;2023-04-06T04:42:29;17.35;;;14.10;;
8232;SDS011;4157;48.074;9.952;2023-04-06T04:44:59;16.30;;;10.52;;
8232;SDS011;4157;48.074;9.952;2023-04-06T04:47:33;18.13;;;9.95;;
8232;SDS011;4157;48.074;9.952;2023-04-06T04:50:01;15.02;;;9.18;;
8232;SDS011;4157;48.074;9.952;2023-04-06T04:52:29;15.80;;;9.98;;
8232;SDS011;4157;48.074;9.952;2023-04-06T04:55:11;16.00;;;10.15;;
8232;SDS011;4157;48.074;9.952;2023-04-06T04:57:38;13.95;;;12.45;;
8232;SDS011;4157;48.074;9.952;2023-04-06T05:00:07;18.48;;;10.88;;
8232;SDS011;4157;48.074;9.952;2023-04-06T05:02:36;15.82;;;9.95;;
8232;SDS011;4157;48.074;9.952;2023-04-06T05:05:24;15.77;;;12.63;;
8232;SDS011;4157;48.074;9.952;2023-04-06T05:07:53;16.83;;;10.35;;
8232;SDS011;4157;48.074;9.952;2023-04-06T05:10:42;19.83;;;9.48;;
8232;SDS011;4157;48.074;9.952;2023-04-06T05:13:11;18.83;;;10.63;;
8232;SDS011;4157;48.074;9.952;2023-04-06T05:15:39;18.35;;;11.25;;
8232;SDS011;4157;48.074;9.952;2023-04-06T05:18:19;20.85;;;15.38;;
8232;SDS011;4157;48.074;9.952;2023-04-06T05:20:47;20.08;;;11.32;;
8232;SDS011;4157;48.074;9.952;2023-04-06T05:23:17;17.88;;;10.68;;
8232;SDS011;4157;48.074;9.952;2023-04-06T05:25:46;20.08;;;11.27;;
8232;SDS011;4157;48.074;9.952;2023-04-06T05:28:18;19.10;;;11.10;;
8232;SDS011;4157;48.074;9.952;2023-04-06T05:30:46;17.83;;;10.88;;
8232;SDS011;4157;48.074;9.952;2023-04-06T05:33:14;16.98;;;11.25;;
8232;SDS011;4157;48.074;9.952;2023-04-06T05:36:05;20.73;;;10.60;;
8232;SDS011;4157;48.074;9.952;2023-04-06T05:38:36;16.52;;;10.20;;
8232;SDS011;4157;48.074;9.952;2023-04-06T05:41:16;19.98;;;10.48;;
8232;SDS011;4157;48.074;9.952;2023-04-06T05:43:44;22.23;;;13.95;;
8232;SDS011;4157;48.074;9.952;2023-04-06T05:46:12;22.90;;;10.55;;
8232;SDS011;4157;48.074;9.952;2023-04-06T05:48:40;26.77;;;14.18;;
8232;SDS011;4157;48.074;9.952;2023-04-06T05:51:08;17.60;;;10.90;;
8232;SDS011;4157;48.074;9.952;2023-04-06T05:53:43;19.40;;;9.55;;
8232;SDS011;4157;48.074;9.952;2023-04-06T05:56:10;19.17;;;10.85;;
8232;SDS011;4157;48.074;9.952;2023-04-06T05:58:40;16.88;;;10.27;;
8232;SDS011;4157;48.074;9.952;2023-04-06T06:01:10;21.30;;;10.15;;
8232;SDS011;4157;48.074;9.952;2023-04-06T06:03:42;20.33;;;10.77;;
8232;SDS011;4157;48.074;9.952;2023-04-06T06:06:10;22.15;;;11.10;;
8232;SDS011;4157;48.074;9.952;2023-04-06T06:08:49;20.33;;;11.50;;
8232;SDS011;4157;48.074;9.952;2023-04-06T06:11:18;19.70;;;12.20;;
8232;SDS011;4157;48.074;9.952;2023-04-06T06:13:48;21.42;;;11.75;;
8232;SDS011;4157;48.074;9.952;2023-04-06T06:16:16;20.73;;;13.88;;
8232;SDS011;4157;48.074;9.952;2023-04-06T06:18:46;22.08;;;14.93;;
8232;SDS011;4157;48.074;9.952;2023-04-06T06:21:14;24.45;;;16.40;;
8232;SDS011;4157;48.074;9.952;2023-04-06T06:23:42;25.75;;;15.55;;
8232;SDS011;4157;48.074;9.952;2023-04-06T06:26:14;24.58;;;14.45;;
8232;SDS011;4157;48.074;9.952;2023-04-06T06:28:42;24.70;;;17.88;;
8232;SDS011;4157;48.074;9.952;2023-04-06T06:31:13;24.58;;;16.67;;
8232;SDS011;4157;48.074;9.952;2023-04-06T06:33:42;23.90;;;12.60;;
8232;SDS011;4157;48.074;9.952;2023-04-06T06:36:10;21.55;;;10.07;;
8232;SDS011;4157;48.074;9.952;2023-04-06T06:38:39;24.40;;;10.73;;
8232;SDS011;4157;48.074;9.952;2023-04-06T06:41:07;18.33;;;13.65;;
8232;SDS011;4157;48.074;9.952;2023-04-06T06:43:36;18.10;;;14.57;;
8232;SDS011;4157;48.074;9.952;2023-04-06T06:46:07;16.75;;;10.30;;
8232;SDS011;4157;48.074;9.952;2023-04-06T06:48:36;16.27;;;9.85;;
8232;SDS011;4157;48.074;9.952;2023-04-06T06:51:04;18.55;;;13.65;;
8232;SDS011;4157;48.074;9.952;2023-04-06T06:53:32;21.00;;;10.95;;
8232;SDS011;4157;48.074;9.952;2023-04-06T06:55:59;18.90;;;13.38;;
8232;SDS011;4157;48.074;9.952;2023-04-06T06:58:29;16.08;;;11.90;;
8232;SDS011;4157;48.074;9.952;2023-04-06T07:00:57;17.80;;;11.80;;
8232;SDS011;4157;48.074;9.952;2023-04-06T07:03:25;13.48;;;8.68;;
8232;SDS011;4157;48.074;9.952;2023-04-06T07:05:55;14.60;;;8.50;;
8232;SDS011;4157;48.074;9.952;2023-04-06T07:08:24;12.60;;;9.68;;
8232;SDS011;4157;48.074;9.952;2023-04-06T07:10:52;16.80;;;8.57;;
8232;SDS011;4157;48.074;9.952;2023-04-06T07:13:21;15.55;;;9.35;;
8232;SDS011;4157;48.074;9.952;2023-04-06T07:15:51;16.10;;;10.55;;
8232;SDS011;4157;48.074;9.952;2023-04-06T07:18:19;13.27;;;8.30;;
8232;SDS011;4157;48.074;9.952;2023-04-06T07:20:47;13.00;;;10.07;;
8232;SDS011;4157;48.074;9.952;2023-04-06T07:23:17;13.38;;;9.63;;
8232;SDS011;4157;48.074;9.952;2023-04-06T07:25:45;11.50;;;9.40;;
8232;SDS011;4157;48.074;9.952;2023-04-06T07:28:12;11.07;;;7.20;;
8232;SDS011;4157;48.074;9.952;2023-04-06T07:30:41;11.88;;;8.93;;
8232;SDS011;4157;48.074;9.952;2023-04-06T07:33:11;15.70;;;9.63;;
8232;SDS011;4157;48.074;9.952;2023-04-06T07:35:40;11.73;;;9.02;;
8232;SDS011;4157;48.074;9.952;2023-04-06T07:38:09;11.80;;;9.27;;
8232;SDS011;4157;48.074;9.952;2023-04-06T07:40:38;11.15;;;8.60;;
8232;SDS011;4157;48.074;9.952;2023-04-06T07:43:06;11.75;;;9.18;;
8232;SDS011;4157;48.074;9.952;2023-04-06T07:45:34;10.45;;;8.45;;
8232;SDS011;4157;48.074;9.952;2023-04-06T07:48:02;10.60;;;8.27;;
8232;SDS011;4157;48.074;9.952;2023-04-06T07:50:31;12.60;;;9.23;;
8232;SDS011;4157;48.074;9.952;2023-04-06T07:52:58;13.30;;;9.38;;
8232;SDS011;4157;48.074;9.952;2023-04-06T07:55:27;11.88;;;8.90;;
8232;SDS011;4157;48.074;9.952;2023-04-06T07:57:56;13.63;;;9.20;;
8232;SDS011;4157;48.074;9.952;2023-04-06T08:00:23;12.00;;;9.40;;
8232;SDS011;4157;48.074;9.952;2023-04-06T08:02:51;11.13;;;8.95;;
8232;SDS011;4157;48.074;9.952;2023-04-06T08:05:19;11.40;;;8.38;;
8232;SDS011;4157;48.074;9.952;2023-04-06T08:07:46;10.10;;;8.10;;
8232;SDS011;4157;48.074;9.952;2023-04-06T08:10:14;11.75;;;8.80;;
8232;SDS011;4157;48.074;9.952;2023-04-06T08:12:42;10.52;;;8.90;;
8232;SDS011;4157;48.074;9.952;2023-04-06T08:15:11;12.48;;;9.52;;
8232;SDS011;4157;48.074;9.952;2023-04-06T08:17:39;12.48;;;9.25;;
8232;SDS011;4157;48.074;9.952;2023-04-06T08:20:07;11.88;;;9.07;;
8232;SDS011;4157;48.074;9.952;2023-04-06T08:22:34;16.55;;;9.52;;
8232;SDS011;4157;48.074;9.952;2023-04-06T08:25:02;11.95;;;9.63;;
8232;SDS011;4157;48.074;9.952;2023-04-06T08:27:30;13.52;;;9.60;;
8232;SDS011;4157;48.074;9.952;2023-04-06T08:29:58;12.57;;;9.32;;
8232;SDS011;4157;48.074;9.952;2023-04-06T08:32:27;11.43;;;9.20;;
8232;SDS011;4157;48.074;9.952;2023-04-06T08:34:54;11.27;;;8.93;;
8232;SDS011;4157;48.074;9.952;2023-04-06T08:37:22;12.00;;;9.43;;
8232;SDS011;4157;48.074;9.952;2023-04-06T08:39:50;11.95;;;9.07;;
8232;SDS011;4157;48.074;9.952;2023-04-06T08:42:19;12.88;;;8.70;;
8232;SDS011;4157;48.074;9.952;2023-04-06T08:44:47;11.60;;;9.38;;
8232;SDS011;4157;48.074;9.952;2023-04-06T08:47:16;12.00;;;8.95;;
8232;SDS011;4157;48.074;9.952;2023-04-06T08:49:45;11.77;;;9.00;;
8232;SDS011;4157;48.074;9.952;2023-04-06T08:52:13;10.75;;;9.07;;
8232;SDS011;4157;48.074;9.952;2023-04-06T08:54:42;12.75;;;9.30;;
8232;SDS011;4157;48.074;9.952;2023-04-06T08:57:10;12.13;;;9.30;;
8232;SDS011;4157;48.074;9.952;2023-04-06T08:59:38;11.57;;;9.82;;
8232;SDS011;4157;48.074;9.952;2023-04-06T09:02:06;11.32;;;9.07;;
8232;SDS011;4157;48.074;9.952;2023-04-06T09:04:37;11.82;;;8.82;;
8232;SDS011;4157;48.074;9.952;2023-04-06T09:07:07;12.32;;;9.70;;
8232;SDS011;4157;48.074;9.952;2023-04-06T09:09:34;11.35;;;9.32;;
8232;SDS011;4157;48.074;9.952;2023-04-06T09:12:02;11.02;;;9.00;;
8232;SDS011;4157;48.074;9.952;2023-04-06T09:14:34;12.50;;;9.00;;
8232;SDS011;4157;48.074;9.952;2023-04-06T09:17:03;10.98;;;8.65;;
8232;SDS011;4157;48.074;9.952;2023-04-06T09:19:31;11.15;;;9.23;;
8232;SDS011;4157;48.074;9.952;2023-04-06T09:22:02;11.13;;;8.23;;
8232;SDS011;4157;48.074;9.952;2023-04-06T09:24:41;11.02;;;8.50;;
8232;SDS011;4157;48.074;9.952;2023-04-06T09:27:09;11.40;;;8.15;;
8232;SDS011;4157;48.074;9.952;2023-04-06T09:29:37;10.98;;;8.77;;
8232;SDS011;4157;48.074;9.952;2023-04-06T09:32:05;9.38;;;8.00;;
8232;SDS011;4157;48.074;9.952;2023-04-06T09:34:33;11.95;;;8.50;;
8232;SDS011;4157;48.074;9.952;2023-04-06T09:37:01;11.07;;;8.00;;
8232;SDS011;4157;48.074;9.952;2023-04-06T09:39:39;7.72;;;5.78;;
8232;SDS011;4157;48.074;9.952;2023-04-06T09:42:08;9.57;;;6.22;;
8232;SDS011;4157;48.074;9.952;2023-04-06T09:44:36;8.38;;;6.03;;
8232;SDS011;4157;48.074;9.952;2023-04-06T09:47:03;8.25;;;5.85;;
8232;SDS011;4157;48.074;9.952;2023-04-06T09:49:34;11.73;;;7.05;;
8232;SDS011;4157;48.074;9.952;2023-04-06T09:52:02;10.18;;;7.15;;
8232;SDS011;4157;48.074;9.952;2023-04-06T09:54:30;9.82;;;6.68;;
8232;SDS011;4157;48.074;9.952;2023-04-06T09:57:01;10.43;;;7.40;;
8232;SDS011;4157;48.074;9.952;2023-04-06T09:59:36;8.73;;;6.90;;
8232;SDS011;4157;48.074;9.952;2023-04-06T10:02:05;9.30;;;6.90;;
8232;SDS011;4157;48.074;9.952;2023-04-06T10:04:36;10.68;;;6.78;;
8232;SDS011;4157;48.074;9.952;2023-04-06T10:07:04;9.23;;;6.78;;
8232;SDS011;4157;48.074;9.952;2023-04-06T10:09:32;8.45;;;6.90;;
8232;SDS011;4157;48.074;9.952;2023-04-06T10:12:02;8.40;;;6.63;;
8232;SDS011;4157;48.074;9.952;2023-04-06T10:14:32;9.32;;;7.63;;
8232;SDS011;4157;48.074;9.952;2023-04-06T10:17:02;10.70;;;7.20;;
8232;SDS011;4157;48.074;9.952;2023-04-06T10:19:33;9.88;;;7.65;;
8232;SDS011;4157;48.074;9.952;2023-04-06T10:22:02;9.55;;;7.00;;
8232;SDS011;4157;48.074;9.952;2023-04-06T10:24:30;9.65;;;7.10;;
8232;SDS011;4157;48.074;9.952;2023-04-06T10:26:58;11.35;;;7.28;;
8232;SDS011;4157;48.074;9.952;2023-04-06T10:29:25;10.75;;;6.75;;
8232;SDS011;4157;48.074;9.952;2023-04-06T10:31:54;10.80;;;6.78;;
8232;SDS011;4157;48.074;9.952;2023-04-06T10:34:22;8.60;;;6.00;;
8232;SDS011;4157;48.074;9.952;2023-04-06T10:36:50;7.25;;;4.95;;
8232;SDS011;4157;48.074;9.952;2023-04-06T10:39:23;7.93;;;5.20;;
8232;SDS011;4157;48.074;9.952;2023-04-06T10:41:53;8.13;;;5.88;;
8232;SDS011;4157;48.074;9.952;2023-04-06T10:44:21;8.75;;;6.00;;
8232;SDS011;4157;48.074;9.952;2023-04-06T10:46:52;9.23;;;6.72;;
8232;SDS011;4157;48.074;9.952;2023-04-06T10:49:22;9.38;;;6.15;;
8232;SDS011;4157;48.074;9.952;2023-04-06T10:51:51;8.93;;;6.07;;
8232;SDS011;4157;48.074;9.952;2023-04-06T10:54:20;11.13;;;6.57;;
8232;SDS011;4157;48.074;9.952;2023-04-06T10:56:48;8.18;;;6.00;;
8232;SDS011;4157;48.074;9.952;2023-04-06T10:59:18;9.88;;;6.45;;
8232;SDS011;4157;48.074;9.952;2023-04-06T11:01:46;10.73;;;7.53;;
8232;SDS011;4157;48.074;9.952;2023-04-06T11:04:17;8.90;;;6.20;;
8232;SDS011;4157;48.074;9.952;2023-04-06T11:06:47;8.85;;;5.65;;
8232;SDS011;4157;48.074;9.952;2023-04-06T11:09:24;6.70;;;5.38;;
8232;SDS011;4157;48.074;9.952;2023-04-06T11:11:52;8.93;;;6.22;;
8232;SDS011;4157;48.074;9.952;2023-04-06T11:14:21;10.15;;;6.32;;
8232;SDS011;4157;48.074;9.952;2023-04-06T11:16:48;9.25;;;6.20;;
8232;SDS011;4157;48.074;9.952;2023-04-06T11:19:16;11.18;;;7.32;;
8232;SDS011;4157;48.074;9.952;2023-04-06T11:21:45;9.60;;;6.57;;
8232;SDS011;4157;48.074;9.952;2023-04-06T11:24:15;8.57;;;6.40;;
8232;SDS011;4157;48.074;9.952;2023-04-06T11:26:45;12.15;;;6.30;;
8232;SDS011;4157;48.074;9.952;2023-04-06T11:29:15;9.95;;;6.75;;
8232;SDS011;4157;48.074;9.952;2023-04-06T11:31:44;9.27;;;6.55;;
8232;SDS011;4157;48.074;9.952;2023-04-06T11:34:13;9.35;;;5.85;;
8232;SDS011;4157;48.074;9.952;2023-04-06T11:36:41;8.07;;;6.00;;
8232;SDS011;4157;48.074;9.952;2023-04-06T11:39:09;8.80;;;5.97;;
8232;SDS011;4157;48.074;9.952;2023-04-06T11:41:38;8.80;;;6.15;;
8232;SDS011;4157;48.074;9.952;2023-04-06T11:44:06;8.70;;;6.60;;
8232;SDS011;4157;48.074;9.952;2023-04-06T11:46:34;8.07;;;6.10;;
8232;SDS011;4157;48.074;9.952;2023-04-06T11:49:01;9.80;;;7.25;;
8232;SDS011;4157;48.074;9.952;2023-04-06T11:51:29;8.95;;;6.22;;
8232;SDS011;4157;48.074;9.952;2023-04-06T11:53:57;9.07;;;6.32;;
8232;SDS011;4157;48.074;9.952;2023-04-06T11:56:25;7.97;;;5.88;;
8232;SDS011;4157;48.074;9.952;2023-04-06T11:58:56;8.15;;;6.22;;
8232;SDS011;4157;48.074;9.952;2023-04-06T12:01:24;8.98;;;6.63;;
8232;SDS011;4157;48.074;9.952;2023-04-06T12:03:51;8.07;;;6.13;;
8232;SDS011;4157;48.074;9.952;2023-04-06T12:06:19;9.45;;;7.30;;
8232;SDS011;4157;48.074;9.952;2023-04-06T12:08:47;7.68;;;6.20;;
8232;SDS011;4157;48.074;9.952;2023-04-06T12:11:15;8.00;;;6.43;;
8232;SDS011;4157;48.074;9.952;2023-04-06T12:13:44;8.98;;;6.00;;
8232;SDS011;4157;48.074;9.952;2023-04-06T12:16:14;8.07;;;6.13;;
8232;SDS011;4157;48.074;9.952;2023-04-06T12:18:48;8.75;;;6.60;;
8232;SDS011;4157;48.074;9.952;2023-04-06T12:21:16;8.02;;;6.07;;
8232;SDS011;4157;48.074;9.952;2023-04-06T12:23:44;8.98;;;6.32;;
8232;SDS011;4157;48.074;9.952;2023-04-06T12:26:11;8.45;;;6.57;;
8232;SDS011;4157;48.074;9.952;2023-04-06T12:28:39;10.45;;;6.40;;
8232;SDS011;4157;48.074;9.952;2023-04-06T12:31:07;9.00;;;6.50;;
8232;SDS011;4157;48.074;9.952;2023-04-06T12:33:36;8.65;;;6.60;;
8232;SDS011;4157;48.074;9.952;2023-04-06T12:36:04;8.43;;;6.28;;
8232;SDS011;4157;48.074;9.952;2023-04-06T12:38:31;8.52;;;5.82;;
8232;SDS011;4157;48.074;9.952;2023-04-06T12:40:59;7.88;;;5.93;;
8232;SDS011;4157;48.074;9.952;2023-04-06T12:43:27;8.75;;;6.40;;
8232;SDS011;4157;48.074;9.952;2023-04-06T12:45:54;7.43;;;5.50;;
8232;SDS011;4157;48.074;9.952;2023-04-06T12:48:22;9.63;;;6.00;;
8232;SDS011;4157;48.074;9.952;2023-04-06T12:50:55;8.27;;;6.07;;
8232;SDS011;4157;48.074;9.952;2023-04-06T12:53:23;9.15;;;6.53;;
8232;SDS011;4157;48.074;9.952;2023-04-06T12:55:51;8.88;;;6.15;;
8232;SDS011;4157;48.074;9.952;2023-04-06T12:58:19;8.10;;;6.07;;
8232;SDS011;4157;48.074;9.952;2023-04-06T13:00:47;8.45;;;6.30;;
8232;SDS011;4157;48.074;9.952;2023-04-06T13:03:14;8.25;;;6.40;;
8232;SDS011;4157;48.074;9.952;2023-04-06T13:05:43;8.07;;;5.70;;
8232;SDS011;4157;48.074;9.952;2023-04-06T13:08:12;10.02;;;6.22;;
8232;SDS011;4157;48.074;9.952;2023-04-06T13:10:42;8.10;;;5.97;;
8232;SDS011;4157;48.074;9.952;2023-04-06T13:13:10;8.00;;;6.07;;
8232;SDS011;4157;48.074;9.952;2023-04-06T13:15:38;8.20;;;5.40;;
8232;SDS011;4157;48.074;9.952;2023-04-06T13:18:05;7.97;;;5.60;;
8232;SDS011;4157;48.074;9.952;2023-04-06T13:20:33;8.57;;;5.05;;
8232;SDS011;4157;48.074;9.952;2023-04-06T13:23:01;6.90;;;4.60;;
8232;SDS011;4157;48.074;9.952;2023-04-06T13:25:30;6.38;;;4.60;;
8232;SDS011;4157;48.074;9.952;2023-04-06T13:27:58;7.32;;;4.82;;
8232;SDS011;4157;48.074;9.952;2023-04-06T13:30:26;12.65;;;5.43;;
8232;SDS011;4157;48.074;9.952;2023-04-06T13:32:53;7.15;;;5.20;;
8232;SDS011;4157;48.074;9.952;2023-04-06T13:35:21;5.75;;;3.95;;
8232;SDS011;4157;48.074;9.952;2023-04-06T13:37:49;6.60;;;4.07;;
8232;SDS011;4157;48.074;9.952;2023-04-06T13:40:17;6.85;;;3.85;;
8232;SDS011;4157;48.074;9.952;2023-04-06T13:42:47;6.65;;;4.38;;
8232;SDS011;4157;48.074;9.952;2023-04-06T13:45:16;8.57;;;4.15;;
8232;SDS011;4157;48.074;9.952;2023-04-06T13:47:43;6.75;;;3.80;;
8232;SDS011;4157;48.074;9.952;2023-04-06T13:50:11;6.85;;;4.22;;
8232;SDS011;4157;48.074;9.952;2023-04-06T13:52:39;6.38;;;4.35;;
8232;SDS011;4157;48.074;9.952;2023-04-06T13:55:07;6.75;;;3.75;;
8232;SDS011;4157;48.074;9.952;2023-04-06T13:57:35;6.10;;;3.83;;
8232;SDS011;4157;48.074;9.952;2023-04-06T14:00:05;6.97;;;4.00;;
8232;SDS011;4157;48.074;9.952;2023-04-06T14:02:34;6.82;;;3.80;;
8232;SDS011;4157;48.074;9.952;2023-04-06T14:05:02;7.38;;;3.88;;
8232;SDS011;4157;48.074;9.952;2023-04-06T14:07:30;6.30;;;3.85;;
8232;SDS011;4157;48.074;9.952;2023-04-06T14:09:57;5.93;;;3.80;;
8232;SDS011;4157;48.074;9.952;2023-04-06T14:12:25;5.93;;;3.67;;
8232;SDS011;4157;48.074;9.952;2023-04-06T14:14:53;6.28;;;3.97;;
8232;SDS011;4157;48.074;9.952;2023-04-06T14:17:22;7.15;;;4.18;;
8232;SDS011;4157;48.074;9.952;2023-04-06T14:19:50;6.43;;;4.03;;
8232;SDS011;4157;48.074;9.952;2023-04-06T14:22:18;6.60;;;4.03;;
8232;SDS011;4157;48.074;9.952;2023-04-06T14:24:46;6.43;;;4.15;;
8232;SDS011;4157;48.074;9.952;2023-04-06T14:27:14;6.32;;;4.03;;
8232;SDS011;4157;48.074;9.952;2023-04-06T14:29:41;6.70;;;4.30;;
8232;SDS011;4157;48.074;9.952;2023-04-06T14:32:09;6.10;;;4.20;;
8232;SDS011;4157;48.074;9.952;2023-04-06T14:34:38;9.18;;;4.95;;
8232;SDS011;4157;48.074;9.952;2023-04-06T14:37:06;7.72;;;4.93;;
8232;SDS011;4157;48.074;9.952;2023-04-06T14:39:33;9.27;;;4.88;;
8232;SDS011;4157;48.074;9.952;2023-04-06T14:42:01;9.70;;;4.35;;
8232;SDS011;4157;48.074;9.952;2023-04-06T14:44:29;8.07;;;4.90;;
8232;SDS011;4157;48.074;9.952;2023-04-06T14:46:56;6.82;;;4.20;;
8232;SDS011;4157;48.074;9.952;2023-04-06T14:49:24;6.68;;;4.45;;
8232;SDS011;4157;48.074;9.952;2023-04-06T14:51:53;7.07;;;4.93;;
8232;SDS011;4157;48.074;9.952;2023-04-06T14:54:21;6.72;;;4.40;;
8232;SDS011;4157;48.074;9.952;2023-04-06T14:56:48;6.93;;;4.28;;
8232;SDS011;4157;48.074;9.952;2023-04-06T14:59:16;7.45;;;4.55;;
8232;SDS011;4157;48.074;9.952;2023-04-06T15:01:44;6.72;;;4.43;;
8232;SDS011;4157;48.074;9.952;2023-04-06T15:04:11;7.20;;;4.80;;
8232;SDS011;4157;48.074;9.952;2023-04-06T15:06:39;6.28;;;4.20;;
8232;SDS011;4157;48.074;9.952;2023-04-06T15:09:08;7.78;;;4.75;;
8232;SDS011;4157;48.074;9.952;2023-04-06T15:11:36;6.68;;;4.55;;
8232;SDS011;4157;48.074;9.952;2023-04-06T15:14:05;6.57;;;4.35;;
8232;SDS011;4157;48.074;9.952;2023-04-06T15:16:33;7.32;;;4.40;;